Holcombe, Wisconsin
Current Conditions -  °F | °C
As of 3:15 AM on Friday 31 Oct 2014 (Local Time) from KRCX Reporting Station
Broken Clouds Broken Clouds  
Wind Chill: 20°   Ceiling: 4600
Heat Index: 31°   Visibility: 10mi
Dew Point: 21°   Wind: 16mph
Humidity: 68%   Direction: 350°N
Pressure: 30.32"   Gusts: 28mph
Location:  45.22°N, 91.12°W
Report Text: KRCX 310815Z AUTO 35014G24KT 10SM SCT034 BKN046 M01/M06 A3032 RMK AO2 T10071059
Loading
Personal Weather Stations






























Interactive Weather Map
Tropical Storm Tracking
New forecast layout! Learn more

10-Day Weather Forecast

Advertisements
Track Severe Weather on mobile